sensor_id;sensor_type;location;lat;lon;timestamp;P1;durP1;ratioP1;P2;durP2;ratioP2
32138;SDS011;18644;48.700;9.210;2022-08-19T00:00:37;8.80;;;6.57;;
32138;SDS011;18644;48.700;9.210;2022-08-19T00:03:04;9.25;;;6.78;;
32138;SDS011;18644;48.700;9.210;2022-08-19T00:05:33;6.78;;;6.00;;
32138;SDS011;18644;48.700;9.210;2022-08-19T00:08:00;7.88;;;6.35;;
32138;SDS011;18644;48.700;9.210;2022-08-19T00:10:27;7.65;;;6.28;;
32138;SDS011;18644;48.700;9.210;2022-08-19T00:12:54;7.18;;;6.45;;
32138;SDS011;18644;48.700;9.210;2022-08-19T00:15:21;8.55;;;7.65;;
32138;SDS011;18644;48.700;9.210;2022-08-19T00:17:50;8.50;;;6.82;;
32138;SDS011;18644;48.700;9.210;2022-08-19T00:20:18;7.68;;;6.30;;
32138;SDS011;18644;48.700;9.210;2022-08-19T00:22:47;7.85;;;7.05;;
32138;SDS011;18644;48.700;9.210;2022-08-19T00:25:14;7.32;;;6.35;;
32138;SDS011;18644;48.700;9.210;2022-08-19T00:27:41;8.98;;;6.75;;
32138;SDS011;18644;48.700;9.210;2022-08-19T00:30:08;7.68;;;6.85;;
32138;SDS011;18644;48.700;9.210;2022-08-19T00:32:37;7.00;;;6.18;;
32138;SDS011;18644;48.700;9.210;2022-08-19T00:35:06;7.43;;;6.57;;
32138;SDS011;18644;48.700;9.210;2022-08-19T00:37:34;7.43;;;6.63;;
32138;SDS011;18644;48.700;9.210;2022-08-19T00:40:03;7.85;;;7.05;;
32138;SDS011;18644;48.700;9.210;2022-08-19T00:42:32;8.48;;;7.13;;
32138;SDS011;18644;48.700;9.210;2022-08-19T00:44:59;7.13;;;6.40;;
32138;SDS011;18644;48.700;9.210;2022-08-19T00:47:26;7.38;;;6.35;;
32138;SDS011;18644;48.700;9.210;2022-08-19T00:49:53;9.55;;;7.13;;
32138;SDS011;18644;48.700;9.210;2022-08-19T00:52:27;8.70;;;6.50;;
32138;SDS011;18644;48.700;9.210;2022-08-19T00:54:58;8.38;;;6.80;;
32138;SDS011;18644;48.700;9.210;2022-08-19T00:57:28;10.00;;;7.45;;
32138;SDS011;18644;48.700;9.210;2022-08-19T01:00:12;9.32;;;6.90;;
32138;SDS011;18644;48.700;9.210;2022-08-19T01:02:43;8.65;;;7.28;;
32138;SDS011;18644;48.700;9.210;2022-08-19T01:05:10;8.65;;;7.25;;
32138;SDS011;18644;48.700;9.210;2022-08-19T01:07:42;6.70;;;6.00;;
32138;SDS011;18644;48.700;9.210;2022-08-19T01:10:10;7.82;;;6.60;;
32138;SDS011;18644;48.700;9.210;2022-08-19T01:12:41;8.18;;;6.85;;
32138;SDS011;18644;48.700;9.210;2022-08-19T01:15:09;10.23;;;8.23;;
32138;SDS011;18644;48.700;9.210;2022-08-19T01:17:38;8.05;;;7.03;;
32138;SDS011;18644;48.700;9.210;2022-08-19T01:20:08;8.20;;;6.57;;
32138;SDS011;18644;48.700;9.210;2022-08-19T01:22:40;10.73;;;8.05;;
32138;SDS011;18644;48.700;9.210;2022-08-19T01:25:11;13.02;;;7.07;;
32138;SDS011;18644;48.700;9.210;2022-08-19T01:27:39;10.57;;;6.78;;
32138;SDS011;18644;48.700;9.210;2022-08-19T01:30:08;7.03;;;6.18;;
32138;SDS011;18644;48.700;9.210;2022-08-19T01:32:39;7.70;;;6.57;;
32138;SDS011;18644;48.700;9.210;2022-08-19T01:35:06;8.38;;;7.40;;
32138;SDS011;18644;48.700;9.210;2022-08-19T01:37:42;7.88;;;6.53;;
32138;SDS011;18644;48.700;9.210;2022-08-19T01:40:12;7.25;;;6.50;;
32138;SDS011;18644;48.700;9.210;2022-08-19T01:42:39;9.98;;;7.63;;
32138;SDS011;18644;48.700;9.210;2022-08-19T01:45:06;7.00;;;6.18;;
32138;SDS011;18644;48.700;9.210;2022-08-19T01:47:34;8.35;;;7.00;;
32138;SDS011;18644;48.700;9.210;2022-08-19T01:50:02;7.20;;;6.20;;
32138;SDS011;18644;48.700;9.210;2022-08-19T01:52:31;8.35;;;6.82;;
32138;SDS011;18644;48.700;9.210;2022-08-19T01:54:59;8.18;;;6.72;;
32138;SDS011;18644;48.700;9.210;2022-08-19T01:57:26;7.68;;;6.80;;
32138;SDS011;18644;48.700;9.210;2022-08-19T01:59:53;8.13;;;6.38;;
32138;SDS011;18644;48.700;9.210;2022-08-19T02:02:20;8.65;;;7.03;;
32138;SDS011;18644;48.700;9.210;2022-08-19T02:04:47;9.50;;;7.45;;
32138;SDS011;18644;48.700;9.210;2022-08-19T02:07:13;9.15;;;7.72;;
32138;SDS011;18644;48.700;9.210;2022-08-19T02:09:40;9.32;;;7.47;;
32138;SDS011;18644;48.700;9.210;2022-08-19T02:12:09;8.68;;;7.00;;
32138;SDS011;18644;48.700;9.210;2022-08-19T02:14:36;7.78;;;6.95;;
32138;SDS011;18644;48.700;9.210;2022-08-19T02:17:03;9.38;;;7.63;;
32138;SDS011;18644;48.700;9.210;2022-08-19T02:19:30;8.05;;;7.03;;
32138;SDS011;18644;48.700;9.210;2022-08-19T02:21:58;9.93;;;8.00;;
32138;SDS011;18644;48.700;9.210;2022-08-19T02:24:25;9.20;;;7.38;;
32138;SDS011;18644;48.700;9.210;2022-08-19T02:26:52;9.38;;;7.20;;
32138;SDS011;18644;48.700;9.210;2022-08-19T02:29:21;9.18;;;7.63;;
32138;SDS011;18644;48.700;9.210;2022-08-19T02:31:48;10.40;;;7.63;;
32138;SDS011;18644;48.700;9.210;2022-08-19T02:34:15;10.00;;;8.20;;
32138;SDS011;18644;48.700;9.210;2022-08-19T02:36:42;10.20;;;8.25;;
32138;SDS011;18644;48.700;9.210;2022-08-19T02:39:09;9.98;;;8.38;;
32138;SDS011;18644;48.700;9.210;2022-08-19T02:41:35;11.18;;;8.73;;
32138;SDS011;18644;48.700;9.210;2022-08-19T02:44:03;12.60;;;9.00;;
32138;SDS011;18644;48.700;9.210;2022-08-19T02:46:32;10.68;;;8.35;;
32138;SDS011;18644;48.700;9.210;2022-08-19T02:49:03;10.35;;;7.97;;
32138;SDS011;18644;48.700;9.210;2022-08-19T02:51:35;12.80;;;8.60;;
32138;SDS011;18644;48.700;9.210;2022-08-19T02:54:06;11.55;;;9.32;;
32138;SDS011;18644;48.700;9.210;2022-08-19T02:56:34;11.43;;;8.98;;
32138;SDS011;18644;48.700;9.210;2022-08-19T02:59:02;9.93;;;8.75;;
32138;SDS011;18644;48.700;9.210;2022-08-19T03:01:36;12.57;;;9.00;;
32138;SDS011;18644;48.700;9.210;2022-08-19T03:04:05;11.27;;;8.35;;
32138;SDS011;18644;48.700;9.210;2022-08-19T03:06:35;11.30;;;9.00;;
32138;SDS011;18644;48.700;9.210;2022-08-19T03:09:03;11.38;;;8.85;;
32138;SDS011;18644;48.700;9.210;2022-08-19T03:11:31;10.95;;;8.98;;
32138;SDS011;18644;48.700;9.210;2022-08-19T03:14:00;11.45;;;8.98;;
32138;SDS011;18644;48.700;9.210;2022-08-19T03:16:30;12.65;;;10.35;;
32138;SDS011;18644;48.700;9.210;2022-08-19T03:19:01;11.88;;;9.73;;
32138;SDS011;18644;48.700;9.210;2022-08-19T03:21:30;10.38;;;8.25;;
32138;SDS011;18644;48.700;9.210;2022-08-19T03:23:59;11.10;;;8.95;;
32138;SDS011;18644;48.700;9.210;2022-08-19T03:26:30;12.15;;;8.68;;
32138;SDS011;18644;48.700;9.210;2022-08-19T03:28:57;10.20;;;8.45;;
32138;SDS011;18644;48.700;9.210;2022-08-19T03:31:29;11.57;;;8.57;;
32138;SDS011;18644;48.700;9.210;2022-08-19T03:33:56;11.98;;;9.68;;
32138;SDS011;18644;48.700;9.210;2022-08-19T03:36:26;12.73;;;9.38;;
32138;SDS011;18644;48.700;9.210;2022-08-19T03:38:54;13.57;;;10.30;;
32138;SDS011;18644;48.700;9.210;2022-08-19T03:41:24;12.32;;;9.68;;
32138;SDS011;18644;48.700;9.210;2022-08-19T03:43:54;11.63;;;9.48;;
32138;SDS011;18644;48.700;9.210;2022-08-19T03:46:21;11.68;;;9.27;;
32138;SDS011;18644;48.700;9.210;2022-08-19T03:48:52;13.98;;;10.70;;
32138;SDS011;18644;48.700;9.210;2022-08-19T03:51:21;14.98;;;10.05;;
32138;SDS011;18644;48.700;9.210;2022-08-19T03:53:51;14.50;;;10.23;;
32138;SDS011;18644;48.700;9.210;2022-08-19T03:56:20;14.35;;;10.23;;
32138;SDS011;18644;48.700;9.210;2022-08-19T03:58:50;14.13;;;10.68;;
32138;SDS011;18644;48.700;9.210;2022-08-19T04:01:19;12.48;;;9.55;;
32138;SDS011;18644;48.700;9.210;2022-08-19T04:03:51;14.85;;;10.52;;
32138;SDS011;18644;48.700;9.210;2022-08-19T04:06:19;12.85;;;10.38;;
32138;SDS011;18644;48.700;9.210;2022-08-19T04:08:51;12.97;;;10.30;;
32138;SDS011;18644;48.700;9.210;2022-08-19T04:11:20;13.18;;;10.38;;
32138;SDS011;18644;48.700;9.210;2022-08-19T04:13:51;14.88;;;10.77;;
32138;SDS011;18644;48.700;9.210;2022-08-19T04:16:19;13.55;;;11.35;;
32138;SDS011;18644;48.700;9.210;2022-08-19T04:18:47;15.48;;;11.38;;
32138;SDS011;18644;48.700;9.210;2022-08-19T04:21:15;13.70;;;10.57;;
32138;SDS011;18644;48.700;9.210;2022-08-19T04:23:45;12.90;;;10.70;;
32138;SDS011;18644;48.700;9.210;2022-08-19T04:26:14;12.98;;;10.43;;
32138;SDS011;18644;48.700;9.210;2022-08-19T04:28:43;14.52;;;11.52;;
32138;SDS011;18644;48.700;9.210;2022-08-19T04:31:12;14.90;;;11.18;;
32138;SDS011;18644;48.700;9.210;2022-08-19T04:33:40;15.10;;;11.63;;
32138;SDS011;18644;48.700;9.210;2022-08-19T04:36:08;14.18;;;11.10;;
32138;SDS011;18644;48.700;9.210;2022-08-19T04:38:42;15.23;;;10.80;;
32138;SDS011;18644;48.700;9.210;2022-08-19T04:41:09;15.68;;;11.55;;
32138;SDS011;18644;48.700;9.210;2022-08-19T04:43:55;16.88;;;11.43;;
32138;SDS011;18644;48.700;9.210;2022-08-19T04:46:22;14.27;;;11.05;;
32138;SDS011;18644;48.700;9.210;2022-08-19T04:48:49;14.82;;;11.98;;
32138;SDS011;18644;48.700;9.210;2022-08-19T04:51:16;17.10;;;11.68;;
32138;SDS011;18644;48.700;9.210;2022-08-19T04:53:43;14.02;;;11.55;;
32138;SDS011;18644;48.700;9.210;2022-08-19T04:56:11;14.32;;;11.95;;
32138;SDS011;18644;48.700;9.210;2022-08-19T04:58:40;15.50;;;11.95;;
32138;SDS011;18644;48.700;9.210;2022-08-19T05:01:11;14.90;;;11.52;;
32138;SDS011;18644;48.700;9.210;2022-08-19T05:03:39;15.77;;;11.18;;
32138;SDS011;18644;48.700;9.210;2022-08-19T05:06:06;17.20;;;12.13;;
32138;SDS011;18644;48.700;9.210;2022-08-19T05:08:36;13.90;;;10.82;;
32138;SDS011;18644;48.700;9.210;2022-08-19T05:11:07;13.80;;;11.10;;
32138;SDS011;18644;48.700;9.210;2022-08-19T05:13:37;15.63;;;10.93;;
32138;SDS011;18644;48.700;9.210;2022-08-19T05:16:04;15.27;;;10.98;;
32138;SDS011;18644;48.700;9.210;2022-08-19T05:18:33;15.25;;;11.50;;
32138;SDS011;18644;48.700;9.210;2022-08-19T05:21:19;11.57;;;9.55;;
32138;SDS011;18644;48.700;9.210;2022-08-19T05:24:06;13.73;;;10.50;;
32138;SDS011;18644;48.700;9.210;2022-08-19T05:26:34;13.82;;;11.02;;
32138;SDS011;18644;48.700;9.210;2022-08-19T05:29:01;17.10;;;11.50;;
32138;SDS011;18644;48.700;9.210;2022-08-19T05:31:29;13.77;;;11.25;;
32138;SDS011;18644;48.700;9.210;2022-08-19T05:33:57;16.23;;;11.15;;
32138;SDS011;18644;48.700;9.210;2022-08-19T05:36:24;15.50;;;11.63;;
32138;SDS011;18644;48.700;9.210;2022-08-19T05:38:51;14.40;;;11.57;;
32138;SDS011;18644;48.700;9.210;2022-08-19T05:41:19;13.20;;;10.75;;
32138;SDS011;18644;48.700;9.210;2022-08-19T05:43:54;15.63;;;10.75;;
32138;SDS011;18644;48.700;9.210;2022-08-19T05:46:21;15.85;;;11.40;;
32138;SDS011;18644;48.700;9.210;2022-08-19T05:48:48;13.18;;;11.25;;
32138;SDS011;18644;48.700;9.210;2022-08-19T05:51:17;13.82;;;10.65;;
32138;SDS011;18644;48.700;9.210;2022-08-19T05:53:44;13.85;;;11.35;;
32138;SDS011;18644;48.700;9.210;2022-08-19T05:56:12;14.98;;;11.43;;
32138;SDS011;18644;48.700;9.210;2022-08-19T05:58:42;14.27;;;10.80;;
32138;SDS011;18644;48.700;9.210;2022-08-19T06:01:11;13.25;;;10.77;;
32138;SDS011;18644;48.700;9.210;2022-08-19T06:03:41;13.93;;;11.13;;
32138;SDS011;18644;48.700;9.210;2022-08-19T06:06:12;14.85;;;11.43;;
32138;SDS011;18644;48.700;9.210;2022-08-19T06:08:42;13.32;;;10.88;;
32138;SDS011;18644;48.700;9.210;2022-08-19T06:11:14;15.15;;;12.02;;
32138;SDS011;18644;48.700;9.210;2022-08-19T06:13:45;12.93;;;10.52;;
32138;SDS011;18644;48.700;9.210;2022-08-19T06:16:15;13.35;;;10.57;;
32138;SDS011;18644;48.700;9.210;2022-08-19T06:18:47;13.35;;;10.63;;
32138;SDS011;18644;48.700;9.210;2022-08-19T06:21:17;14.07;;;11.07;;
32138;SDS011;18644;48.700;9.210;2022-08-19T06:23:47;13.45;;;10.95;;
32138;SDS011;18644;48.700;9.210;2022-08-19T06:26:15;12.02;;;10.43;;
32138;SDS011;18644;48.700;9.210;2022-08-19T06:28:43;13.88;;;10.70;;
32138;SDS011;18644;48.700;9.210;2022-08-19T06:31:11;13.80;;;10.30;;
32138;SDS011;18644;48.700;9.210;2022-08-19T06:33:41;15.65;;;11.32;;
32138;SDS011;18644;48.700;9.210;2022-08-19T06:36:15;14.13;;;10.38;;
32138;SDS011;18644;48.700;9.210;2022-08-19T06:38:44;14.45;;;10.75;;
32138;SDS011;18644;48.700;9.210;2022-08-19T06:41:12;16.00;;;11.55;;
32138;SDS011;18644;48.700;9.210;2022-08-19T06:43:39;12.00;;;10.13;;
32138;SDS011;18644;48.700;9.210;2022-08-19T06:46:11;14.60;;;11.38;;
32138;SDS011;18644;48.700;9.210;2022-08-19T06:48:42;15.15;;;10.90;;
32138;SDS011;18644;48.700;9.210;2022-08-19T06:51:09;14.77;;;10.48;;
32138;SDS011;18644;48.700;9.210;2022-08-19T06:53:36;15.23;;;11.20;;
32138;SDS011;18644;48.700;9.210;2022-08-19T06:56:05;13.57;;;10.23;;
32138;SDS011;18644;48.700;9.210;2022-08-19T06:58:32;12.20;;;10.30;;
32138;SDS011;18644;48.700;9.210;2022-08-19T07:00:59;12.60;;;10.95;;
32138;SDS011;18644;48.700;9.210;2022-08-19T07:03:29;15.35;;;11.52;;
32138;SDS011;18644;48.700;9.210;2022-08-19T07:05:58;14.18;;;10.40;;
32138;SDS011;18644;48.700;9.210;2022-08-19T07:08:29;13.90;;;10.90;;
32138;SDS011;18644;48.700;9.210;2022-08-19T07:10:56;15.52;;;11.10;;
32138;SDS011;18644;48.700;9.210;2022-08-19T07:13:25;15.55;;;11.70;;
32138;SDS011;18644;48.700;9.210;2022-08-19T07:15:52;14.95;;;10.88;;
32138;SDS011;18644;48.700;9.210;2022-08-19T07:18:20;13.82;;;10.45;;
32138;SDS011;18644;48.700;9.210;2022-08-19T07:20:47;12.55;;;10.57;;
32138;SDS011;18644;48.700;9.210;2022-08-19T07:23:14;11.93;;;10.07;;
32138;SDS011;18644;48.700;9.210;2022-08-19T07:25:41;14.95;;;11.40;;
32138;SDS011;18644;48.700;9.210;2022-08-19T07:28:11;16.05;;;10.80;;
32138;SDS011;18644;48.700;9.210;2022-08-19T07:30:39;12.73;;;10.02;;
32138;SDS011;18644;48.700;9.210;2022-08-19T07:33:06;17.02;;;10.63;;
32138;SDS011;18644;48.700;9.210;2022-08-19T07:35:33;14.77;;;11.07;;
32138;SDS011;18644;48.700;9.210;2022-08-19T07:38:00;15.48;;;11.68;;
32138;SDS011;18644;48.700;9.210;2022-08-19T07:40:28;10.82;;;9.70;;
32138;SDS011;18644;48.700;9.210;2022-08-19T07:42:56;13.48;;;10.82;;
32138;SDS011;18644;48.700;9.210;2022-08-19T07:45:23;11.63;;;10.38;;
32138;SDS011;18644;48.700;9.210;2022-08-19T07:47:52;12.75;;;10.60;;
32138;SDS011;18644;48.700;9.210;2022-08-19T07:50:20;13.63;;;11.05;;
32138;SDS011;18644;48.700;9.210;2022-08-19T07:52:47;11.85;;;10.20;;
32138;SDS011;18644;48.700;9.210;2022-08-19T07:55:16;12.80;;;10.57;;
32138;SDS011;18644;48.700;9.210;2022-08-19T07:57:45;14.85;;;10.27;;
32138;SDS011;18644;48.700;9.210;2022-08-19T08:00:13;13.77;;;10.73;;
32138;SDS011;18644;48.700;9.210;2022-08-19T08:02:41;11.27;;;9.90;;
32138;SDS011;18644;48.700;9.210;2022-08-19T08:05:09;12.25;;;9.88;;
32138;SDS011;18644;48.700;9.210;2022-08-19T08:07:55;13.30;;;10.02;;
32138;SDS011;18644;48.700;9.210;2022-08-19T08:10:39;16.77;;;11.65;;
32138;SDS011;18644;48.700;9.210;2022-08-19T08:13:07;13.02;;;10.50;;
32138;SDS011;18644;48.700;9.210;2022-08-19T08:15:34;18.73;;;11.13;;
32138;SDS011;18644;48.700;9.210;2022-08-19T08:18:03;13.02;;;10.95;;
32138;SDS011;18644;48.700;9.210;2022-08-19T08:20:32;12.68;;;10.52;;
32138;SDS011;18644;48.700;9.210;2022-08-19T08:22:59;14.68;;;10.68;;
32138;SDS011;18644;48.700;9.210;2022-08-19T08:25:43;15.30;;;10.25;;
32138;SDS011;18644;48.700;9.210;2022-08-19T08:28:10;14.45;;;10.88;;
32138;SDS011;18644;48.700;9.210;2022-08-19T08:30:37;12.02;;;10.10;;
32138;SDS011;18644;48.700;9.210;2022-08-19T08:33:06;13.88;;;10.50;;
32138;SDS011;18644;48.700;9.210;2022-08-19T08:35:34;11.98;;;9.57;;
32138;SDS011;18644;48.700;9.210;2022-08-19T08:38:02;11.18;;;9.10;;
32138;SDS011;18644;48.700;9.210;2022-08-19T08:40:33;13.02;;;10.25;;
32138;SDS011;18644;48.700;9.210;2022-08-19T08:43:09;17.20;;;10.07;;
32138;SDS011;18644;48.700;9.210;2022-08-19T08:45:50;14.40;;;10.40;;
32138;SDS011;18644;48.700;9.210;2022-08-19T08:48:24;14.43;;;10.77;;
32138;SDS011;18644;48.700;9.210;2022-08-19T08:50:59;12.63;;;10.77;;
32138;SDS011;18644;48.700;9.210;2022-08-19T08:53:29;14.02;;;10.75;;
32138;SDS011;18644;48.700;9.210;2022-08-19T08:55:58;11.90;;;9.73;;
32138;SDS011;18644;48.700;9.210;2022-08-19T08:58:32;15.80;;;10.43;;
32138;SDS011;18644;48.700;9.210;2022-08-19T09:01:12;11.77;;;10.00;;
32138;SDS011;18644;48.700;9.210;2022-08-19T09:03:40;17.98;;;10.20;;
32138;SDS011;18644;48.700;9.210;2022-08-19T09:06:13;12.80;;;11.10;;
32138;SDS011;18644;48.700;9.210;2022-08-19T09:08:48;14.68;;;10.65;;
32138;SDS011;18644;48.700;9.210;2022-08-19T09:11:25;12.32;;;9.68;;
32138;SDS011;18644;48.700;9.210;2022-08-19T09:14:09;10.95;;;9.07;;
32138;SDS011;18644;48.700;9.210;2022-08-19T09:16:48;12.00;;;10.10;;
32138;SDS011;18644;48.700;9.210;2022-08-19T09:19:16;16.85;;;10.52;;
32138;SDS011;18644;48.700;9.210;2022-08-19T09:21:45;11.27;;;9.48;;
32138;SDS011;18644;48.700;9.210;2022-08-19T09:24:12;11.15;;;9.55;;
32138;SDS011;18644;48.700;9.210;2022-08-19T09:26:39;14.13;;;10.50;;
32138;SDS011;18644;48.700;9.210;2022-08-19T09:29:08;13.20;;;9.88;;
32138;SDS011;18644;48.700;9.210;2022-08-19T09:31:36;10.32;;;9.25;;
32138;SDS011;18644;48.700;9.210;2022-08-19T09:34:03;12.07;;;9.40;;
32138;SDS011;18644;48.700;9.210;2022-08-19T09:36:30;12.82;;;10.27;;
32138;SDS011;18644;48.700;9.210;2022-08-19T09:39:02;11.23;;;9.77;;
32138;SDS011;18644;48.700;9.210;2022-08-19T09:41:29;11.35;;;10.15;;
32138;SDS011;18644;48.700;9.210;2022-08-19T09:43:57;10.90;;;9.63;;
32138;SDS011;18644;48.700;9.210;2022-08-19T09:46:25;12.75;;;9.48;;
32138;SDS011;18644;48.700;9.210;2022-08-19T09:48:58;12.70;;;10.25;;
32138;SDS011;18644;48.700;9.210;2022-08-19T09:51:26;12.00;;;10.30;;
32138;SDS011;18644;48.700;9.210;2022-08-19T09:53:54;11.75;;;9.60;;
32138;SDS011;18644;48.700;9.210;2022-08-19T09:56:28;9.80;;;8.80;;
32138;SDS011;18644;48.700;9.210;2022-08-19T09:58:57;13.73;;;9.75;;
32138;SDS011;18644;48.700;9.210;2022-08-19T10:01:25;10.05;;;8.63;;
32138;SDS011;18644;48.700;9.210;2022-08-19T10:03:55;12.27;;;9.75;;
32138;SDS011;18644;48.700;9.210;2022-08-19T10:06:25;10.45;;;8.85;;
32138;SDS011;18644;48.700;9.210;2022-08-19T10:08:57;10.52;;;8.73;;
32138;SDS011;18644;48.700;9.210;2022-08-19T10:11:26;9.93;;;8.85;;
32138;SDS011;18644;48.700;9.210;2022-08-19T10:13:53;10.27;;;8.90;;
32138;SDS011;18644;48.700;9.210;2022-08-19T10:16:21;10.90;;;9.13;;
32138;SDS011;18644;48.700;9.210;2022-08-19T10:18:50;10.20;;;7.90;;
32138;SDS011;18644;48.700;9.210;2022-08-19T10:21:18;13.02;;;8.93;;
32138;SDS011;18644;48.700;9.210;2022-08-19T10:23:50;11.32;;;9.25;;
32138;SDS011;18644;48.700;9.210;2022-08-19T10:26:21;11.18;;;8.80;;
32138;SDS011;18644;48.700;9.210;2022-08-19T10:28:52;10.88;;;9.45;;
32138;SDS011;18644;48.700;9.210;2022-08-19T10:31:20;10.80;;;8.52;;
32138;SDS011;18644;48.700;9.210;2022-08-19T10:33:50;11.43;;;8.32;;
32138;SDS011;18644;48.700;9.210;2022-08-19T10:36:22;11.10;;;8.02;;
32138;SDS011;18644;48.700;9.210;2022-08-19T10:38:52;11.80;;;9.98;;
32138;SDS011;18644;48.700;9.210;2022-08-19T10:41:22;10.05;;;8.75;;
32138;SDS011;18644;48.700;9.210;2022-08-19T10:43:53;9.77;;;8.77;;
32138;SDS011;18644;48.700;9.210;2022-08-19T10:46:24;11.77;;;9.25;;
32138;SDS011;18644;48.700;9.210;2022-08-19T10:48:53;9.43;;;8.35;;
32138;SDS011;18644;48.700;9.210;2022-08-19T10:51:20;9.75;;;8.75;;
32138;SDS011;18644;48.700;9.210;2022-08-19T10:54:05;10.15;;;8.43;;
32138;SDS011;18644;48.700;9.210;2022-08-19T10:56:34;11.27;;;8.23;;
32138;SDS011;18644;48.700;9.210;2022-08-19T10:59:20;9.20;;;7.38;;
32138;SDS011;18644;48.700;9.210;2022-08-19T11:01:49;9.20;;;7.95;;
32138;SDS011;18644;48.700;9.210;2022-08-19T11:04:17;8.75;;;7.85;;
32138;SDS011;18644;48.700;9.210;2022-08-19T11:06:45;9.00;;;7.22;;
32138;SDS011;18644;48.700;9.210;2022-08-19T11:09:14;8.77;;;7.88;;
32138;SDS011;18644;48.700;9.210;2022-08-19T11:11:46;9.35;;;7.05;;
32138;SDS011;18644;48.700;9.210;2022-08-19T11:14:13;8.23;;;7.25;;
32138;SDS011;18644;48.700;9.210;2022-08-19T11:16:43;8.35;;;6.95;;
32138;SDS011;18644;48.700;9.210;2022-08-19T11:19:10;8.38;;;6.82;;
32138;SDS011;18644;48.700;9.210;2022-08-19T11:21:39;8.45;;;7.00;;
32138;SDS011;18644;48.700;9.210;2022-08-19T11:24:10;7.57;;;6.78;;
32138;SDS011;18644;48.700;9.210;2022-08-19T11:26:41;7.95;;;6.65;;
32138;SDS011;18644;48.700;9.210;2022-08-19T11:29:11;7.97;;;5.85;;
32138;SDS011;18644;48.700;9.210;2022-08-19T11:31:40;9.65;;;6.97;;
32138;SDS011;18644;48.700;9.210;2022-08-19T11:34:10;6.70;;;6.00;;
32138;SDS011;18644;48.700;9.210;2022-08-19T11:36:40;9.25;;;6.80;;
32138;SDS011;18644;48.700;9.210;2022-08-19T11:39:09;8.57;;;6.28;;
32138;SDS011;18644;48.700;9.210;2022-08-19T11:41:39;7.22;;;6.45;;
32138;SDS011;18644;48.700;9.210;2022-08-19T11:44:06;7.85;;;6.80;;
32138;SDS011;18644;48.700;9.210;2022-08-19T11:46:35;9.13;;;8.18;;
32138;SDS011;18644;48.700;9.210;2022-08-19T11:49:04;10.50;;;8.73;;
32138;SDS011;18644;48.700;9.210;2022-08-19T11:51:34;11.55;;;9.70;;
32138;SDS011;18644;48.700;9.210;2022-08-19T11:54:01;13.20;;;10.18;;
32138;SDS011;18644;48.700;9.210;2022-08-19T11:56:30;10.02;;;8.35;;
32138;SDS011;18644;48.700;9.210;2022-08-19T11:58:58;11.98;;;9.48;;
32138;SDS011;18644;48.700;9.210;2022-08-19T12:01:26;14.38;;;9.05;;
32138;SDS011;18644;48.700;9.210;2022-08-19T12:03:55;11.10;;;8.73;;
32138;SDS011;18644;48.700;9.210;2022-08-19T12:06:25;10.03;;;8.73;;
32138;SDS011;18644;48.700;9.210;2022-08-19T12:08:57;13.85;;;9.45;;
32138;SDS011;18644;48.700;9.210;2022-08-19T12:11:27;15.18;;;9.32;;
32138;SDS011;18644;48.700;9.210;2022-08-19T12:13:54;12.43;;;9.15;;
32138;SDS011;18644;48.700;9.210;2022-08-19T12:16:23;10.07;;;9.02;;
32138;SDS011;18644;48.700;9.210;2022-08-19T12:18:54;11.98;;;9.80;;
32138;SDS011;18644;48.700;9.210;2022-08-19T12:21:23;11.75;;;9.00;;
32138;SDS011;18644;48.700;9.210;2022-08-19T12:23:53;9.93;;;8.88;;
32138;SDS011;18644;48.700;9.210;2022-08-19T12:26:22;11.20;;;9.90;;
32138;SDS011;18644;48.700;9.210;2022-08-19T12:28:50;10.32;;;9.23;;
32138;SDS011;18644;48.700;9.210;2022-08-19T12:31:17;12.07;;;9.27;;
32138;SDS011;18644;48.700;9.210;2022-08-19T12:33:45;11.10;;;9.18;;
32138;SDS011;18644;48.700;9.210;2022-08-19T12:36:15;13.30;;;9.95;;
32138;SDS011;18644;48.700;9.210;2022-08-19T12:38:42;10.55;;;9.48;;
32138;SDS011;18644;48.700;9.210;2022-08-19T12:41:10;11.10;;;9.23;;
32138;SDS011;18644;48.700;9.210;2022-08-19T12:43:40;12.55;;;9.18;;
32138;SDS011;18644;48.700;9.210;2022-08-19T12:46:07;13.20;;;10.73;;
32138;SDS011;18644;48.700;9.210;2022-08-19T12:48:35;12.77;;;10.48;;
32138;SDS011;18644;48.700;9.210;2022-08-19T12:51:05;11.70;;;9.20;;
32138;SDS011;18644;48.700;9.210;2022-08-19T12:53:36;13.90;;;10.90;;
32138;SDS011;18644;48.700;9.210;2022-08-19T12:56:03;14.35;;;11.20;;
32138;SDS011;18644;48.700;9.210;2022-08-19T12:58:31;13.70;;;10.02;;
32138;SDS011;18644;48.700;9.210;2022-08-19T13:00:59;11.88;;;9.93;;
32138;SDS011;18644;48.700;9.210;2022-08-19T13:03:26;13.32;;;10.35;;
32138;SDS011;18644;48.700;9.210;2022-08-19T13:05:54;15.70;;;11.23;;
32138;SDS011;18644;48.700;9.210;2022-08-19T13:08:22;14.82;;;11.73;;
32138;SDS011;18644;48.700;9.210;2022-08-19T13:10:50;13.15;;;11.43;;
32138;SDS011;18644;48.700;9.210;2022-08-19T13:13:18;15.27;;;10.77;;
32138;SDS011;18644;48.700;9.210;2022-08-19T13:15:45;15.45;;;11.70;;
32138;SDS011;18644;48.700;9.210;2022-08-19T13:18:12;13.93;;;11.27;;
32138;SDS011;18644;48.700;9.210;2022-08-19T13:20:40;12.77;;;10.45;;
32138;SDS011;18644;48.700;9.210;2022-08-19T13:23:07;14.80;;;10.65;;
32138;SDS011;18644;48.700;9.210;2022-08-19T13:25:34;12.95;;;11.52;;
32138;SDS011;18644;48.700;9.210;2022-08-19T13:28:03;13.75;;;11.18;;
32138;SDS011;18644;48.700;9.210;2022-08-19T13:30:31;12.00;;;10.32;;
32138;SDS011;18644;48.700;9.210;2022-08-19T13:33:16;11.27;;;10.10;;
32138;SDS011;18644;48.700;9.210;2022-08-19T13:35:45;13.90;;;10.93;;
32138;SDS011;18644;48.700;9.210;2022-08-19T13:38:15;13.70;;;11.48;;
32138;SDS011;18644;48.700;9.210;2022-08-19T13:40:45;12.67;;;10.23;;
32138;SDS011;18644;48.700;9.210;2022-08-19T13:43:15;12.90;;;9.93;;
32138;SDS011;18644;48.700;9.210;2022-08-19T13:45:44;13.40;;;10.88;;
32138;SDS011;18644;48.700;9.210;2022-08-19T13:48:11;13.40;;;10.23;;
32138;SDS011;18644;48.700;9.210;2022-08-19T13:50:39;12.52;;;10.45;;
32138;SDS011;18644;48.700;9.210;2022-08-19T13:53:09;12.27;;;9.68;;
32138;SDS011;18644;48.700;9.210;2022-08-19T13:55:38;10.88;;;9.65;;
32138;SDS011;18644;48.700;9.210;2022-08-19T13:58:06;11.90;;;10.18;;
32138;SDS011;18644;48.700;9.210;2022-08-19T14:00:35;12.45;;;10.32;;
32138;SDS011;18644;48.700;9.210;2022-08-19T14:03:04;10.88;;;9.73;;
32138;SDS011;18644;48.700;9.210;2022-08-19T14:05:31;11.63;;;10.00;;
32138;SDS011;18644;48.700;9.210;2022-08-19T14:07:59;12.43;;;11.15;;
32138;SDS011;18644;48.700;9.210;2022-08-19T14:10:26;13.18;;;11.32;;
32138;SDS011;18644;48.700;9.210;2022-08-19T14:12:56;11.80;;;10.57;;
32138;SDS011;18644;48.700;9.210;2022-08-19T14:15:25;12.77;;;10.88;;
32138;SDS011;18644;48.700;9.210;2022-08-19T14:17:55;13.82;;;10.13;;
32138;SDS011;18644;48.700;9.210;2022-08-19T14:20:22;11.55;;;9.45;;
32138;SDS011;18644;48.700;9.210;2022-08-19T14:22:49;12.50;;;10.63;;
32138;SDS011;18644;48.700;9.210;2022-08-19T14:25:17;11.35;;;9.85;;
32138;SDS011;18644;48.700;9.210;2022-08-19T14:27:47;11.35;;;9.88;;
32138;SDS011;18644;48.700;9.210;2022-08-19T14:30:15;12.30;;;9.95;;
32138;SDS011;18644;48.700;9.210;2022-08-19T14:32:54;10.85;;;9.27;;
32138;SDS011;18644;48.700;9.210;2022-08-19T14:35:23;11.80;;;10.55;;
32138;SDS011;18644;48.700;9.210;2022-08-19T14:37:52;11.90;;;9.90;;
32138;SDS011;18644;48.700;9.210;2022-08-19T14:40:20;10.73;;;9.07;;
32138;SDS011;18644;48.700;9.210;2022-08-19T14:42:51;13.95;;;11.73;;